Orca Vi — HP5863 — position and weather

sailwx.info

Track history (hours):
 
Tides and Currents Weather Stations Pressure Air Temp Water Temp Dewpoint Dewpoint Depression Visibility Wind Speed Wind Dir Waves Ship Positions

Orca Vi

Last reported at 2018-Mar-14 19:59 UTC. Time now 2018-Jun-17 22:07 UTC.
Position N 17°28' W 063°01'.
Warning: this ship's position is months out of date.

Length 47 m; draft 4.2 m.

Type: Tug. MMSI: 354216000.

Date/timePositionNaut miles runAvg speedWind from/ knotsBaromVisibWave heightAir tempDewpointWater temp
2018-Mar-14 19:59N 17°28' W 063°01'1 0.3
2018-Mar-14 15:49N 17°29' W 062°60'1 0.7
2018-Mar-14 15:03N 17°29' W 062°59'0 0.0
2018-Mar-14 14:42N 17°29' W 062°59'0 0.0
2018-Mar-14 13:27N 17°29' W 062°59'0 0.0
2018-Mar-14 12:07N 17°29' W 062°59'0 0.0
2018-Mar-14 11:51N 17°29' W 062°59'0 0.0
2018-Mar-14 11:29N 17°29' W 062°59'0 0.2
2018-Mar-14 11:00N 17°29' W 062°59'1 0.0
2018-Mar-13 10:25N 17°29' W 063°00'0 0.0
2018-Mar-13 06:36N 17°29' W 063°00'1 0.0
2018-Mar-12 17:16N 17°29' W 062°60'0 0.9
2018-Mar-12 16:56N 17°29' W 063°00'0 0.0
2018-Mar-12 08:36N 17°29' W 063°00'0 0.0
2018-Mar-11 08:25N 17°29' W 063°00'  
2018-Mar-07 10:17N 17°29' W 063°00'0 0.1
2018-Mar-07 09:55N 17°29' W 063°00'0 0.0
2018-Mar-07 09:28N 17°29' W 063°00'0 0.0
2018-Mar-07 05:51N 17°29' W 063°00'0 0.1
2018-Mar-07 05:26N 17°29' W 063°00'0 0.0
2018-Mar-07 04:53N 17°29' W 063°00'0 0.1
2018-Mar-07 04:22N 17°29' W 063°00'0 0.0
2018-Mar-07 03:54N 17°29' W 063°00'0 0.0
2018-Mar-06 10:17N 17°29' W 062°60'0 0.1
2018-Mar-06 09:39N 17°29' W 062°60'0 0.0
2018-Mar-06 09:28N 17°29' W 062°60'0 0.0
2018-Mar-06 08:56N 17°29' W 062°60'0 0.0
2018-Mar-06 07:54N 17°29' W 062°60'0 0.0
2018-Mar-06 07:25N 17°29' W 062°60'0 0.0
2018-Mar-06 06:49N 17°29' W 062°60'0 0.0
2018-Mar-06 06:25N 17°29' W 062°60'0 0.0
2018-Mar-06 05:58N 17°29' W 062°60'0 0.0
2018-Mar-06 05:30N 17°29' W 062°60'0 0.0
2018-Mar-06 04:54N 17°29' W 062°60'0 0.0
2018-Mar-06 04:29N 17°29' W 062°60'0 0.0
2018-Mar-06 04:00N 17°29' W 062°60'0 0.0
2018-Mar-06 03:29N 17°29' W 062°60'0 0.0
2018-Mar-06 02:49N 17°29' W 062°60'0 0.0
2018-Mar-06 02:29N 17°29' W 062°60'0 0.0
2018-Mar-06 01:59N 17°29' W 062°60'0 0.0
2018-Mar-06 01:27N 17°29' W 062°60'0 0.0
2018-Mar-06 00:54N 17°29' W 062°60'0 0.0
2018-Mar-05 22:25N 17°29' W 062°60'0 0.0
2018-Mar-05 18:52N 17°29' W 062°60'0 0.0
2018-Mar-05 18:19N 17°29' W 062°60'0 0.0
2018-Mar-05 16:19N 17°29' W 062°60'0 0.0
2018-Mar-05 15:44N 17°29' W 062°60'0 0.0
2018-Mar-05 15:27N 17°29' W 062°60'0 0.0
2018-Mar-05 14:19N 17°29' W 062°60'0 0.0
2018-Mar-05 13:43N 17°29' W 062°60'0 0.1
2018-Mar-05 13:29N 17°29' W 062°60'0 0.0
2018-Mar-05 12:55N 17°29' W 062°60'0 0.0
2018-Mar-05 12:29N 17°29' W 062°60'0 0.0
2018-Mar-05 10:44N 17°29' W 062°60'0 0.0
2018-Mar-05 10:28N 17°29' W 062°60'0 0.0
2018-Mar-05 09:34N 17°29' W 062°60'0 0.1
2018-Mar-05 09:27N 17°29' W 062°60'0 0.0
2018-Mar-05 08:59N 17°29' W 062°60'0 0.0
2018-Mar-05 08:11N 17°29' W 062°60'0 0.0
2018-Mar-05 07:52N 17°29' W 062°60'0 0.0
2018-Mar-05 07:19N 17°29' W 062°60'0 0.0
2018-Mar-05 06:52N 17°29' W 062°60'0 0.0
2018-Mar-05 06:30N 17°29' W 062°60'0 0.0
2018-Mar-05 05:57N 17°29' W 062°60'0 0.0
2018-Mar-05 04:25N 17°29' W 062°60'0 0.0
2018-Mar-05 03:52N 17°29' W 062°60'0 0.0
2018-Mar-05 03:30N 17°29' W 062°60'0 0.0
2018-Mar-05 02:58N 17°29' W 062°60'  
Track history (hours):
 
Tides and Currents Weather Stations Pressure Air Temp Water Temp Dewpoint Dewpoint Depression Visibility Wind Speed Wind Dir Waves Ship Positions

Orca Vi

Last reported at 2018-Mar-14 19:59 UTC. Time now 2018-Jun-17 22:07 UTC.
Position N 17°28' W 063°01'.
Warning: this ship's position is months out of date.

Length 47 m; draft 4.2 m.

Type: Tug. MMSI: 354216000.

Date/timePositionNaut miles runAvg speedWind from/ knotsBaromVisibWave heightAir tempDewpointWater temp
2018-Mar-14 19:59N 17°28' W 063°01'1 0.3
2018-Mar-14 15:49N 17°29' W 062°60'1 0.7
2018-Mar-14 15:03N 17°29' W 062°59'0 0.0
2018-Mar-14 14:42N 17°29' W 062°59'0 0.0
2018-Mar-14 13:27N 17°29' W 062°59'0 0.0
2018-Mar-14 12:07N 17°29' W 062°59'0 0.0
2018-Mar-14 11:51N 17°29' W 062°59'0 0.0
2018-Mar-14 11:29N 17°29' W 062°59'0 0.2
2018-Mar-14 11:00N 17°29' W 062°59'1 0.0
2018-Mar-13 10:25N 17°29' W 063°00'0 0.0
2018-Mar-13 06:36N 17°29' W 063°00'1 0.0
2018-Mar-12 17:16N 17°29' W 062°60'0 0.9
2018-Mar-12 16:56N 17°29' W 063°00'0 0.0
2018-Mar-12 08:36N 17°29' W 063°00'0 0.0
2018-Mar-11 08:25N 17°29' W 063°00'  
2018-Mar-07 10:17N 17°29' W 063°00'0 0.1
2018-Mar-07 09:55N 17°29' W 063°00'0 0.0
2018-Mar-07 09:28N 17°29' W 063°00'0 0.0
2018-Mar-07 05:51N 17°29' W 063°00'0 0.1
2018-Mar-07 05:26N 17°29' W 063°00'0 0.0
2018-Mar-07 04:53N 17°29' W 063°00'0 0.1
2018-Mar-07 04:22N 17°29' W 063°00'0 0.0
2018-Mar-07 03:54N 17°29' W 063°00'0 0.0
2018-Mar-06 10:17N 17°29' W 062°60'0 0.1
2018-Mar-06 09:39N 17°29' W 062°60'0 0.0
2018-Mar-06 09:28N 17°29' W 062°60'0 0.0
2018-Mar-06 08:56N 17°29' W 062°60'0 0.0
2018-Mar-06 07:54N 17°29' W 062°60'0 0.0
2018-Mar-06 07:25N 17°29' W 062°60'0 0.0
2018-Mar-06 06:49N 17°29' W 062°60'0 0.0
2018-Mar-06 06:25N 17°29' W 062°60'0 0.0
2018-Mar-06 05:58N 17°29' W 062°60'0 0.0
2018-Mar-06 05:30N 17°29' W 062°60'0 0.0
2018-Mar-06 04:54N 17°29' W 062°60'0 0.0
2018-Mar-06 04:29N 17°29' W 062°60'0 0.0
2018-Mar-06 04:00N 17°29' W 062°60'0 0.0
2018-Mar-06 03:29N 17°29' W 062°60'0 0.0
2018-Mar-06 02:49N 17°29' W 062°60'0 0.0
2018-Mar-06 02:29N 17°29' W 062°60'0 0.0
2018-Mar-06 01:59N 17°29' W 062°60'0 0.0
2018-Mar-06 01:27N 17°29' W 062°60'0 0.0
2018-Mar-06 00:54N 17°29' W 062°60'0 0.0
2018-Mar-05 22:25N 17°29' W 062°60'0 0.0
2018-Mar-05 18:52N 17°29' W 062°60'0 0.0
2018-Mar-05 18:19N 17°29' W 062°60'0 0.0
2018-Mar-05 16:19N 17°29' W 062°60'0 0.0
2018-Mar-05 15:44N 17°29' W 062°60'0 0.0
2018-Mar-05 15:27N 17°29' W 062°60'0 0.0
2018-Mar-05 14:19N 17°29' W 062°60'0 0.0
2018-Mar-05 13:43N 17°29' W 062°60'0 0.1
2018-Mar-05 13:29N 17°29' W 062°60'0 0.0
2018-Mar-05 12:55N 17°29' W 062°60'0 0.0
2018-Mar-05 12:29N 17°29' W 062°60'0 0.0
2018-Mar-05 10:44N 17°29' W 062°60'0 0.0
2018-Mar-05 10:28N 17°29' W 062°60'0 0.0
2018-Mar-05 09:34N 17°29' W 062°60'0 0.1
2018-Mar-05 09:27N 17°29' W 062°60'0 0.0
2018-Mar-05 08:59N 17°29' W 062°60'0 0.0
2018-Mar-05 08:11N 17°29' W 062°60'0 0.0
2018-Mar-05 07:52N 17°29' W 062°60'0 0.0
2018-Mar-05 07:19N 17°29' W 062°60'0 0.0
2018-Mar-05 06:52N 17°29' W 062°60'0 0.0
2018-Mar-05 06:30N 17°29' W 062°60'0 0.0
2018-Mar-05 05:57N 17°29' W 062°60'0 0.0
2018-Mar-05 04:25N 17°29' W 062°60'0 0.0
2018-Mar-05 03:52N 17°29' W 062°60'0 0.0
2018-Mar-05 03:30N 17°29' W 062°60'0 0.0
2018-Mar-05 02:58N 17°29' W 062°60'  

Dump ship's entire track history